sensor_id;sensor_type;location;lat;lon;timestamp;pressure;altitude;pressure_sealevel;temperature;humidity
35778;BME280;21899;42.662;23.316;2023-07-13T15:36:38;94402.28;;;36.38;25.46
35778;BME280;21899;42.662;23.316;2023-07-13T15:39:04;94408.81;;;36.48;26.19
35778;BME280;21899;42.662;23.316;2023-07-13T15:41:31;94412.59;;;36.74;26.16
35778;BME280;21899;42.662;23.316;2023-07-13T15:44:00;94408.97;;;37.16;25.67
35778;BME280;21899;42.662;23.316;2023-07-13T15:46:30;94413.84;;;37.38;25.35
35778;BME280;21899;42.662;23.316;2023-07-13T15:48:57;94422.38;;;37.70;25.36
35778;BME280;21899;42.662;23.316;2023-07-13T15:51:29;94414.19;;;37.72;25.15
35778;BME280;21899;42.662;23.316;2023-07-13T15:53:56;94417.72;;;37.88;25.06
35778;BME280;21899;42.662;23.316;2023-07-13T15:56:25;94420.63;;;38.13;24.96
35778;BME280;21899;42.662;23.316;2023-07-13T15:58:52;94413.50;;;38.34;24.39
35778;BME280;21899;42.662;23.316;2023-07-13T16:01:19;94407.44;;;38.60;24.26
35778;BME280;21899;42.662;23.316;2023-07-13T16:03:45;94416.56;;;38.53;24.30
35778;BME280;21899;42.662;23.316;2023-07-13T16:06:14;94413.03;;;38.60;24.45
35778;BME280;21899;42.662;23.316;2023-07-13T16:08:41;94423.59;;;38.69;24.17
35778;BME280;21899;42.662;23.316;2023-07-13T16:11:20;94416.31;;;38.74;23.84
35778;BME280;21899;42.662;23.316;2023-07-13T16:13:47;94418.53;;;39.08;23.45
35778;BME280;21899;42.662;23.316;2023-07-13T16:16:19;94408.34;;;39.27;23.42
35778;BME280;21899;42.662;23.316;2023-07-13T16:18:44;94411.84;;;39.28;23.54
35778;BME280;21899;42.662;23.316;2023-07-13T16:21:11;94405.97;;;39.16;23.53
35778;BME280;21899;42.662;23.316;2023-07-13T16:23:37;94404.50;;;38.83;23.84
35778;BME280;21899;42.662;23.316;2023-07-13T16:26:07;94399.56;;;38.19;24.91
35778;BME280;21899;42.662;23.316;2023-07-13T16:28:41;94407.47;;;37.60;25.65
35778;BME280;21899;42.662;23.316;2023-07-13T16:31:08;94396.66;;;37.19;26.43
35778;BME280;21899;42.662;23.316;2023-07-13T16:33:35;94399.25;;;36.80;26.29
35778;BME280;21899;42.662;23.316;2023-07-13T16:36:00;94393.19;;;36.38;26.98
35778;BME280;21899;42.662;23.316;2023-07-13T16:38:28;94399.53;;;36.10;27.13
35778;BME280;21899;42.662;23.316;2023-07-13T16:40:55;94394.19;;;35.84;27.52
35778;BME280;21899;42.662;23.316;2023-07-13T16:43:20;94395.63;;;35.50;27.40
35778;BME280;21899;42.662;23.316;2023-07-13T16:45:49;94396.88;;;35.20;29.10
35778;BME280;21899;42.662;23.316;2023-07-13T16:48:21;94402.66;;;35.02;29.44
35778;BME280;21899;42.662;23.316;2023-07-13T16:50:52;94413.69;;;34.94;30.14
35778;BME280;21899;42.662;23.316;2023-07-13T16:53:21;94404.66;;;34.81;30.54
35778;BME280;21899;42.662;23.316;2023-07-13T16:55:47;94404.91;;;34.70;31.27
35778;BME280;21899;42.662;23.316;2023-07-13T16:58:13;94404.97;;;34.57;31.99
35778;BME280;21899;42.662;23.316;2023-07-13T17:00:39;94406.09;;;34.41;32.12
35778;BME280;21899;42.662;23.316;2023-07-13T17:03:05;94402.50;;;34.19;31.53
35778;BME280;21899;42.662;23.316;2023-07-13T17:05:34;94411.56;;;34.07;32.17
35778;BME280;21899;42.662;23.316;2023-07-13T17:08:01;94404.97;;;33.97;32.57
35778;BME280;21899;42.662;23.316;2023-07-13T17:10:29;94400.47;;;33.81;32.13
35778;BME280;21899;42.662;23.316;2023-07-13T17:12:56;94402.19;;;33.71;32.07
35778;BME280;21899;42.662;23.316;2023-07-13T17:15:22;94402.72;;;33.56;31.87
35778;BME280;21899;42.662;23.316;2023-07-13T17:17:50;94410.41;;;33.50;32.02
35778;BME280;21899;42.662;23.316;2023-07-13T17:20:25;94397.47;;;33.40;32.46
35778;BME280;21899;42.662;23.316;2023-07-13T17:22:52;94399.47;;;33.26;32.86
35778;BME280;21899;42.662;23.316;2023-07-13T17:25:19;94405.09;;;33.21;32.41
35778;BME280;21899;42.662;23.316;2023-07-13T17:27:46;94408.81;;;33.10;32.79
35778;BME280;21899;42.662;23.316;2023-07-13T17:30:29;94405.13;;;32.89;33.23
35778;BME280;21899;42.662;23.316;2023-07-13T17:32:55;94405.06;;;32.76;34.81
35778;BME280;21899;42.662;23.316;2023-07-13T17:35:26;94401.28;;;32.60;34.82
35778;BME280;21899;42.662;23.316;2023-07-13T17:37:53;94408.03;;;32.46;35.73
35778;BME280;21899;42.662;23.316;2023-07-13T17:40:19;94403.44;;;32.30;36.22
35778;BME280;21899;42.662;23.316;2023-07-13T17:42:47;94399.66;;;32.15;35.84
35778;BME280;21899;42.662;23.316;2023-07-13T17:45:13;94407.78;;;32.07;36.43
35778;BME280;21899;42.662;23.316;2023-07-13T17:47:45;94413.31;;;31.89;37.11
35778;BME280;21899;42.662;23.316;2023-07-13T17:50:14;94406.44;;;31.71;37.01
35778;BME280;21899;42.662;23.316;2023-07-13T17:52:40;94417.66;;;31.60;36.17
35778;BME280;21899;42.662;23.316;2023-07-13T17:55:16;94409.16;;;31.52;37.34
35778;BME280;21899;42.662;23.316;2023-07-13T17:57:44;94413.03;;;31.44;36.91
35778;BME280;21899;42.662;23.316;2023-07-13T18:00:20;94419.69;;;31.30;38.00
35778;BME280;21899;42.662;23.316;2023-07-13T18:03:00;94415.13;;;31.08;37.14
35778;BME280;21899;42.662;23.316;2023-07-13T18:05:29;94415.94;;;30.98;36.81
35778;BME280;21899;42.662;23.316;2023-07-13T18:07:55;94414.47;;;30.97;37.13
35778;BME280;21899;42.662;23.316;2023-07-13T18:10:21;94423.06;;;30.88;37.89
35778;BME280;21899;42.662;23.316;2023-07-13T18:12:49;94432.16;;;30.83;38.47
35778;BME280;21899;42.662;23.316;2023-07-13T18:15:17;94428.22;;;30.67;39.35
35778;BME280;21899;42.662;23.316;2023-07-13T18:17:48;94438.84;;;30.57;40.20
35778;BME280;21899;42.662;23.316;2023-07-13T18:20:17;94428.44;;;30.39;41.01
35778;BME280;21899;42.662;23.316;2023-07-13T18:22:43;94437.00;;;30.30;41.62
35778;BME280;21899;42.662;23.316;2023-07-13T18:25:18;94434.50;;;30.21;42.02
35778;BME280;21899;42.662;23.316;2023-07-13T18:27:44;94441.59;;;30.11;42.84
35778;BME280;21899;42.662;23.316;2023-07-13T18:30:14;94450.66;;;30.06;43.03
35778;BME280;21899;42.662;23.316;2023-07-13T18:32:44;94456.19;;;30.01;43.10
35778;BME280;21899;42.662;23.316;2023-07-13T18:35:25;94467.50;;;29.92;43.48
35778;BME280;21899;42.662;23.316;2023-07-13T18:37:52;94457.53;;;29.78;43.10
35778;BME280;21899;42.662;23.316;2023-07-13T18:40:18;94469.81;;;29.77;43.64
35778;BME280;21899;42.662;23.316;2023-07-13T18:42:44;94464.06;;;29.69;42.89
35778;BME280;21899;42.662;23.316;2023-07-13T18:45:12;94477.63;;;29.62;43.19
35778;BME280;21899;42.662;23.316;2023-07-13T18:47:40;94483.13;;;29.62;43.46
35778;BME280;21899;42.662;23.316;2023-07-13T18:50:19;94481.13;;;29.57;43.67
35778;BME280;21899;42.662;23.316;2023-07-13T18:52:48;94491.16;;;29.54;44.02
35778;BME280;21899;42.662;23.316;2023-07-13T18:55:15;94488.91;;;29.47;44.67
35778;BME280;21899;42.662;23.316;2023-07-13T18:57:41;94488.19;;;29.41;45.05
35778;BME280;21899;42.662;23.316;2023-07-13T19:00:07;94493.44;;;29.39;44.95
35778;BME280;21899;42.662;23.316;2023-07-13T19:02:33;94495.47;;;29.33;45.17
35778;BME280;21899;42.662;23.316;2023-07-13T19:04:58;94494.47;;;29.25;44.47
35778;BME280;21899;42.662;23.316;2023-07-13T19:07:24;94495.69;;;29.24;43.72
35778;BME280;21899;42.662;23.316;2023-07-13T19:09:53;94494.97;;;29.18;44.56
35778;BME280;21899;42.662;23.316;2023-07-13T19:12:22;94494.44;;;29.14;44.36
35778;BME280;21899;42.662;23.316;2023-07-13T19:14:49;94489.94;;;29.11;44.04
35778;BME280;21899;42.662;23.316;2023-07-13T19:17:15;94497.97;;;29.09;43.94
35778;BME280;21899;42.662;23.316;2023-07-13T19:19:40;94487.69;;;29.04;43.74
35778;BME280;21899;42.662;23.316;2023-07-13T19:22:11;94494.94;;;29.01;44.95
35778;BME280;21899;42.662;23.316;2023-07-13T19:24:37;94493.19;;;28.87;46.42
35778;BME280;21899;42.662;23.316;2023-07-13T19:27:04;94497.94;;;28.76;47.27
35778;BME280;21899;42.662;23.316;2023-07-13T19:29:29;94499.41;;;28.66;47.97
35778;BME280;21899;42.662;23.316;2023-07-13T19:31:55;94495.13;;;28.54;48.13
35778;BME280;21899;42.662;23.316;2023-07-13T19:34:25;94495.06;;;28.43;48.61
35778;BME280;21899;42.662;23.316;2023-07-13T19:36:58;94501.25;;;28.27;48.75
35778;BME280;21899;42.662;23.316;2023-07-13T19:41:53;94502.69;;;28.05;48.97
35778;BME280;21899;42.662;23.316;2023-07-13T19:44:19;94499.16;;;27.94;49.27
35778;BME280;21899;42.662;23.316;2023-07-13T19:46:46;94504.34;;;27.86;49.47
35778;BME280;21899;42.662;23.316;2023-07-13T19:49:11;94500.03;;;27.74;49.99
35778;BME280;21899;42.662;23.316;2023-07-13T19:51:38;94498.25;;;27.71;49.99
35778;BME280;21899;42.662;23.316;2023-07-13T19:54:10;94502.00;;;27.68;49.66
35778;BME280;21899;42.662;23.316;2023-07-13T19:56:37;94494.16;;;27.56;49.72
35778;BME280;21899;42.662;23.316;2023-07-13T19:59:28;94500.88;;;27.49;49.73
35778;BME280;21899;42.662;23.316;2023-07-13T20:01:54;94510.38;;;27.48;49.70
35778;BME280;21899;42.662;23.316;2023-07-13T20:04:20;94500.81;;;27.38;49.68
35778;BME280;21899;42.662;23.316;2023-07-13T20:06:46;94503.28;;;27.36;50.10
35778;BME280;21899;42.662;23.316;2023-07-13T20:09:23;94506.75;;;27.31;50.72
35778;BME280;21899;42.662;23.316;2023-07-13T20:11:50;94499.41;;;27.23;50.64
35778;BME280;21899;42.662;23.316;2023-07-13T20:14:20;94513.91;;;27.23;51.66
35778;BME280;21899;42.662;23.316;2023-07-13T20:16:46;94507.63;;;27.17;52.22
35778;BME280;21899;42.662;23.316;2023-07-13T20:19:13;94509.28;;;27.09;51.83
35778;BME280;21899;42.662;23.316;2023-07-13T20:21:39;94500.97;;;26.98;52.34
35778;BME280;21899;42.662;23.316;2023-07-13T20:24:15;94497.22;;;26.96;52.40
35778;BME280;21899;42.662;23.316;2023-07-13T20:26:42;94494.13;;;26.88;53.19
35778;BME280;21899;42.662;23.316;2023-07-13T20:29:08;94500.59;;;26.85;53.89
35778;BME280;21899;42.662;23.316;2023-07-13T20:31:34;94492.78;;;26.78;54.31
35778;BME280;21899;42.662;23.316;2023-07-13T20:34:02;94498.00;;;26.76;55.26
35778;BME280;21899;42.662;23.316;2023-07-13T20:36:28;94494.94;;;26.68;56.17
35778;BME280;21899;42.662;23.316;2023-07-13T20:38:53;94492.41;;;26.65;55.34
35778;BME280;21899;42.662;23.316;2023-07-13T20:41:20;94486.84;;;26.59;55.16
35778;BME280;21899;42.662;23.316;2023-07-13T20:43:46;94499.13;;;26.64;55.92
35778;BME280;21899;42.662;23.316;2023-07-13T20:46:17;94495.31;;;26.56;57.18
35778;BME280;21899;42.662;23.316;2023-07-13T20:48:44;94496.44;;;26.44;57.11
35778;BME280;21899;42.662;23.316;2023-07-13T20:51:16;94490.59;;;26.36;58.78
35778;BME280;21899;42.662;23.316;2023-07-13T20:53:44;94494.16;;;26.42;59.43
35778;BME280;21899;42.662;23.316;2023-07-13T20:56:17;94495.56;;;26.32;60.11
35778;BME280;21899;42.662;23.316;2023-07-13T20:58:44;94478.72;;;26.19;60.67
35778;BME280;21899;42.662;23.316;2023-07-13T21:01:31;94481.38;;;26.14;61.11
35778;BME280;21899;42.662;23.316;2023-07-13T21:04:04;94485.09;;;26.11;61.48
35778;BME280;21899;42.662;23.316;2023-07-13T21:06:29;94487.75;;;26.05;61.95
35778;BME280;21899;42.662;23.316;2023-07-13T21:08:57;94492.50;;;26.05;63.02
35778;BME280;21899;42.662;23.316;2023-07-13T21:11:22;94492.22;;;26.03;64.04
35778;BME280;21899;42.662;23.316;2023-07-13T21:13:48;94486.63;;;25.97;64.97
35778;BME280;21899;42.662;23.316;2023-07-13T21:16:18;94498.19;;;26.01;65.04
35778;BME280;21899;42.662;23.316;2023-07-13T21:18:44;94492.88;;;25.98;65.45
35778;BME280;21899;42.662;23.316;2023-07-13T21:21:12;94497.13;;;25.99;65.79
35778;BME280;21899;42.662;23.316;2023-07-13T21:23:39;94496.47;;;26.04;65.66
35778;BME280;21899;42.662;23.316;2023-07-13T21:26:06;94493.63;;;25.98;65.83
35778;BME280;21899;42.662;23.316;2023-07-13T21:28:37;94490.72;;;26.02;65.51
35778;BME280;21899;42.662;23.316;2023-07-13T21:31:06;94499.34;;;25.95;66.38
35778;BME280;21899;42.662;23.316;2023-07-13T21:33:33;94500.56;;;25.94;66.54
35778;BME280;21899;42.662;23.316;2023-07-13T21:35:59;94505.75;;;25.92;66.57
35778;BME280;21899;42.662;23.316;2023-07-13T21:38:33;94495.34;;;25.76;67.52
35778;BME280;21899;42.662;23.316;2023-07-13T21:41:12;94500.28;;;25.72;68.65
35778;BME280;21899;42.662;23.316;2023-07-13T21:43:39;94496.41;;;25.63;69.14
35778;BME280;21899;42.662;23.316;2023-07-13T21:46:04;94506.97;;;25.50;70.51
35778;BME280;21899;42.662;23.316;2023-07-13T21:48:33;94523.50;;;25.56;71.35
35778;BME280;21899;42.662;23.316;2023-07-13T21:50:58;94508.69;;;25.48;73.21
35778;BME280;21899;42.662;23.316;2023-07-13T21:53:27;94501.97;;;25.49;72.31
35778;BME280;21899;42.662;23.316;2023-07-13T21:55:55;94512.84;;;25.43;71.96
35778;BME280;21899;42.662;23.316;2023-07-13T21:58:29;94513.59;;;25.44;72.30
35778;BME280;21899;42.662;23.316;2023-07-13T22:00:55;94507.28;;;25.38;73.05
35778;BME280;21899;42.662;23.316;2023-07-13T22:03:27;94503.09;;;25.42;72.75
35778;BME280;21899;42.662;23.316;2023-07-13T22:05:53;94488.94;;;25.29;72.80
35778;BME280;21899;42.662;23.316;2023-07-13T22:08:21;94492.94;;;25.28;72.05
35778;BME280;21899;42.662;23.316;2023-07-13T22:10:48;94493.31;;;25.21;73.47
35778;BME280;21899;42.662;23.316;2023-07-13T22:13:15;94493.50;;;25.18;73.21
35778;BME280;21899;42.662;23.316;2023-07-13T22:15:41;94495.75;;;25.19;73.88
35778;BME280;21899;42.662;23.316;2023-07-13T22:18:16;94478.78;;;25.15;73.86
35778;BME280;21899;42.662;23.316;2023-07-13T22:20:43;94472.75;;;25.11;75.54
35778;BME280;21899;42.662;23.316;2023-07-13T22:23:21;94471.03;;;25.14;74.90
35778;BME280;21899;42.662;23.316;2023-07-13T22:25:48;94458.03;;;25.09;75.16
35778;BME280;21899;42.662;23.316;2023-07-13T22:28:18;94456.97;;;25.06;75.65
35778;BME280;21899;42.662;23.316;2023-07-13T22:30:45;94442.44;;;25.00;76.52
35778;BME280;21899;42.662;23.316;2023-07-13T22:33:19;94445.84;;;24.95;74.80
35778;BME280;21899;42.662;23.316;2023-07-13T22:35:46;94434.34;;;24.91;74.72
35778;BME280;21899;42.662;23.316;2023-07-13T22:38:15;94453.78;;;24.93;74.46
35778;BME280;21899;42.662;23.316;2023-07-13T22:40:41;94445.22;;;24.86;74.99
35778;BME280;21899;42.662;23.316;2023-07-13T22:45:42;94454.28;;;24.77;77.18
35778;BME280;21899;42.662;23.316;2023-07-13T22:48:14;94449.34;;;24.67;75.62
35778;BME280;21899;42.662;23.316;2023-07-13T22:50:40;94456.34;;;24.68;74.24
35778;BME280;21899;42.662;23.316;2023-07-13T22:53:11;94453.25;;;24.75;74.37
35778;BME280;21899;42.662;23.316;2023-07-13T22:55:37;94456.16;;;24.71;75.45
35778;BME280;21899;42.662;23.316;2023-07-13T22:58:03;94463.34;;;24.69;75.50
35778;BME280;21899;42.662;23.316;2023-07-13T23:00:28;94464.84;;;24.70;74.97
35778;BME280;21899;42.662;23.316;2023-07-13T23:02:53;94451.31;;;24.66;74.77
35778;BME280;21899;42.662;23.316;2023-07-13T23:05:19;94469.81;;;24.57;75.53
35778;BME280;21899;42.662;23.316;2023-07-13T23:07:45;94451.81;;;24.50;76.06
35778;BME280;21899;42.662;23.316;2023-07-13T23:10:18;94440.03;;;24.44;76.42
35778;BME280;21899;42.662;23.316;2023-07-13T23:12:45;94430.94;;;24.38;77.11
35778;BME280;21899;42.662;23.316;2023-07-13T23:15:15;94430.75;;;24.41;76.86
35778;BME280;21899;42.662;23.316;2023-07-13T23:17:48;94414.28;;;24.36;77.29
35778;BME280;21899;42.662;23.316;2023-07-13T23:20:26;94412.44;;;24.33;78.01
35778;BME280;21899;42.662;23.316;2023-07-13T23:22:53;94416.13;;;24.30;77.64
35778;BME280;21899;42.662;23.316;2023-07-13T23:25:21;94406.31;;;24.38;78.54
35778;BME280;21899;42.662;23.316;2023-07-13T23:27:51;94402.75;;;24.32;78.66
35778;BME280;21899;42.662;23.316;2023-07-13T23:30:18;94403.31;;;24.36;79.38
35778;BME280;21899;42.662;23.316;2023-07-13T23:32:45;94398.59;;;24.22;79.57
35778;BME280;21899;42.662;23.316;2023-07-13T23:35:13;94402.47;;;24.30;79.97
35778;BME280;21899;42.662;23.316;2023-07-13T23:37:40;94408.22;;;24.32;79.32
35778;BME280;21899;42.662;23.316;2023-07-13T23:40:20;94401.97;;;24.31;79.43
35778;BME280;21899;42.662;23.316;2023-07-13T23:42:46;94383.69;;;24.23;79.31
35778;BME280;21899;42.662;23.316;2023-07-13T23:45:19;94393.88;;;24.22;79.63
35778;BME280;21899;42.662;23.316;2023-07-13T23:47:47;94387.09;;;24.18;79.20
35778;BME280;21899;42.662;23.316;2023-07-13T23:50:22;94401.22;;;24.16;79.79
35778;BME280;21899;42.662;23.316;2023-07-13T23:52:49;94381.41;;;24.07;79.92
35778;BME280;21899;42.662;23.316;2023-07-13T23:55:15;94382.94;;;24.08;80.20
35778;BME280;21899;42.662;23.316;2023-07-13T23:57:42;94385.88;;;24.04;80.48
